createdAt,value
2023-01-08T00:01:12.537Z,98601.56
2023-01-08T00:03:40.039Z,98591.09
2023-01-08T00:06:10.744Z,98586.19
2023-01-08T00:08:37.847Z,98590.78
2023-01-08T00:11:04.500Z,98585.38
2023-01-08T00:13:31.110Z,98583.78
2023-01-08T00:15:57.810Z,98584.91
2023-01-08T00:18:26.614Z,98608.59
2023-01-08T00:20:53.188Z,98590.19
2023-01-08T00:23:20.203Z,98591.28
2023-01-08T00:25:47.051Z,98579.41
2023-01-08T00:28:15.134Z,98571.59
2023-01-08T00:30:42.528Z,98569.19
2023-01-08T00:33:10.588Z,98579.50
2023-01-08T00:35:41.060Z,98588.41
2023-01-08T00:38:07.994Z,98576.03
2023-01-08T00:40:35.845Z,98571.41
2023-01-08T00:43:02.780Z,98564.41
2023-01-08T00:45:29.400Z,98561.41
2023-01-08T00:47:55.996Z,98567.59
2023-01-08T00:50:22.607Z,98560.59
2023-01-08T00:52:49.205Z,98558.25
2023-01-08T00:55:16.163Z,98561.22
2023-01-08T00:57:42.795Z,98565.03
2023-01-08T01:00:12.657Z,98562.81
2023-01-08T01:02:40.742Z,98564.75
2023-01-08T01:05:09.055Z,98556.66
2023-01-08T01:07:35.689Z,98552.34
2023-01-08T01:10:02.310Z,98546.63
2023-01-08T01:12:29.133Z,98545.66
2023-01-08T01:14:55.761Z,98539.31
2023-01-08T01:17:22.352Z,98529.28
2023-01-08T01:19:48.956Z,98535.50
2023-01-08T01:22:15.507Z,98536.59
2023-01-08T01:24:42.238Z,98527.41
2023-01-08T01:27:09.031Z,98529.28
2023-01-08T01:29:35.718Z,98523.13
2023-01-08T01:32:02.282Z,98524.72
2023-01-08T01:34:28.835Z,98520.41
2023-01-08T01:36:55.480Z,98516.91
2023-01-08T01:39:23.217Z,98522.31
2023-01-08T01:41:49.853Z,98525.00
2023-01-08T01:44:52.064Z,98514.53
2023-01-08T01:47:59.855Z,98519.44
2023-01-08T01:50:29.343Z,98506.44
2023-01-08T01:53:03.715Z,98519.31
2023-01-08T01:55:31.815Z,98513.09
2023-01-08T01:58:07.427Z,98517.72
2023-01-08T02:00:34.936Z,98509.28
2023-01-08T02:03:02.367Z,98511.69
2023-01-08T02:05:38.926Z,98514.69
2023-01-08T02:08:13.167Z,98507.41
2023-01-08T02:10:50.243Z,98506.94
2023-01-08T02:13:38.684Z,98490.25
2023-01-08T02:16:14.365Z,98495.03
2023-01-08T02:18:48.708Z,98488.03
2023-01-08T02:21:29.716Z,98482.94
2023-01-08T02:24:25.580Z,98481.69
2023-01-08T02:26:53.180Z,98470.88
2023-01-08T02:29:25.200Z,98468.50
2023-01-08T02:31:51.727Z,98482.41
2023-01-08T02:34:18.339Z,98476.44
2023-01-08T02:36:50.534Z,98485.00
2023-01-08T02:39:29.076Z,98471.03
2023-01-08T02:42:20.238Z,98461.66
2023-01-08T02:44:52.485Z,98471.34
2023-01-08T02:47:30.982Z,98469.41
2023-01-08T02:50:21.481Z,98470.69
2023-01-08T02:53:07.018Z,98473.41
2023-01-08T02:55:35.585Z,98470.41
2023-01-08T02:58:04.652Z,98475.00
2023-01-08T03:00:32.472Z,98474.69
2023-01-08T03:03:11.515Z,98470.06
2023-01-08T03:05:41.306Z,98468.97
2023-01-08T03:08:09.215Z,98458.50
2023-01-08T03:10:38.605Z,98448.00
2023-01-08T03:13:11.557Z,98454.22
2023-01-08T03:15:53.539Z,98450.22
2023-01-08T03:18:29.923Z,98446.75
2023-01-08T03:20:56.577Z,98460.25
2023-01-08T03:23:24.270Z,98458.13
2023-01-08T03:25:50.943Z,98440.84
2023-01-08T03:28:30.595Z,98447.34
2023-01-08T03:30:58.853Z,98451.63
2023-01-08T03:33:27.931Z,98446.09
2023-01-08T03:35:57.040Z,98454.19
2023-01-08T03:38:47.487Z,98451.78
2023-01-08T03:41:19.763Z,98454.97
2023-01-08T03:43:46.617Z,98459.09
2023-01-08T03:46:29.142Z,98448.31
2023-01-08T03:48:56.945Z,98459.88
2023-01-08T03:51:23.493Z,98461.47
2023-01-08T03:53:54.393Z,98451.78
2023-01-08T03:56:20.983Z,98450.53
2023-01-08T03:58:48.329Z,98452.75
2023-01-08T04:01:14.986Z,98447.34
2023-01-08T04:03:41.618Z,98458.13
2023-01-08T04:06:08.225Z,98450.53
2023-01-08T04:08:34.847Z,98439.88
2023-01-08T04:11:01.527Z,98448.31
2023-01-08T04:13:28.096Z,98431.31
2023-01-08T04:15:54.723Z,98445.13
2023-01-08T04:18:21.359Z,98433.22
2023-01-08T04:20:48.229Z,98439.88
2023-01-08T04:23:15.726Z,98428.31
2023-01-08T04:25:42.397Z,98423.69
2023-01-08T04:28:09.076Z,98429.91
2023-01-08T04:30:35.634Z,98418.31
2023-01-08T04:33:02.245Z,98426.88
2023-01-08T04:35:28.822Z,98424.03
2023-01-08T04:37:55.436Z,98429.72
2023-01-08T04:40:22.004Z,98420.03
2023-01-08T04:42:48.566Z,98415.75
2023-01-08T04:45:15.254Z,98428.13
2023-01-08T04:47:41.815Z,98426.84
2023-01-08T04:50:08.789Z,98434.78
2023-01-08T04:52:35.521Z,98422.41
2023-01-08T04:55:02.226Z,98418.59
2023-01-08T04:57:28.809Z,98407.63
2023-01-08T04:59:55.457Z,98414.31
2023-01-08T05:02:22.188Z,98403.81
2023-01-08T05:04:48.843Z,98404.63
2023-01-08T05:07:15.451Z,98399.88
2023-01-08T05:09:41.965Z,98409.53
2023-01-08T05:12:08.552Z,98401.75
2023-01-08T05:14:35.117Z,98402.88
2023-01-08T05:17:01.710Z,98397.28
2023-01-08T05:19:28.283Z,98379.38
2023-01-08T05:21:54.838Z,98384.44
2023-01-08T05:24:21.441Z,98380.94
2023-01-08T05:26:48.215Z,98392.50
2023-01-08T05:29:14.948Z,98386.66
2023-01-08T05:31:41.612Z,98404.75
2023-01-08T05:34:08.185Z,98399.66
2023-01-08T05:36:34.805Z,98406.16
2023-01-08T05:39:01.392Z,98400.56
2023-01-08T05:41:27.964Z,98400.09
2023-01-08T05:43:54.680Z,98403.59
2023-01-08T05:46:21.357Z,98404.69
2023-01-08T05:48:48.019Z,98401.53
2023-01-08T05:51:14.780Z,98408.78
2023-01-08T05:53:41.369Z,98400.22
2023-01-08T05:56:09.506Z,98395.66
2023-01-08T05:58:36.658Z,98395.69
2023-01-08T06:01:09.606Z,98399.31
2023-01-08T06:03:37.273Z,98398.59
2023-01-08T06:06:05.924Z,98396.22
2023-01-08T06:08:34.542Z,98388.13
2023-01-08T06:11:03.184Z,98389.22
2023-01-08T06:13:29.836Z,98396.06
2023-01-08T06:15:59.104Z,98380.69
2023-01-08T06:18:26.057Z,98368.88
2023-01-08T06:20:52.736Z,98386.94
2023-01-08T06:23:19.310Z,98379.44
2023-01-08T06:25:52.153Z,98372.47
2023-01-08T06:28:18.871Z,98372.22
2023-01-08T06:30:45.404Z,98374.81
2023-01-08T06:33:11.945Z,98386.38
2023-01-08T06:35:38.617Z,98385.59
2023-01-08T06:38:05.202Z,98391.50
2023-01-08T06:40:31.903Z,98390.69
2023-01-08T06:43:05.936Z,98389.44
2023-01-08T06:45:33.152Z,98401.97
2023-01-08T06:48:04.141Z,98386.53
2023-01-08T06:50:32.531Z,98382.25
2023-01-08T06:52:59.164Z,98394.00
2023-01-08T06:55:26.614Z,98412.44
2023-01-08T06:57:59.147Z,98417.84
2023-01-08T07:00:27.372Z,98397.34
2023-01-08T07:02:54.794Z,98398.13
2023-01-08T07:05:22.098Z,98413.53
2023-01-08T07:07:48.909Z,98416.06
2023-01-08T07:10:16.261Z,98404.44
2023-01-08T07:12:43.539Z,98406.34
2023-01-08T07:15:10.580Z,98409.38
2023-01-08T07:17:37.508Z,98401.69
2023-01-08T07:20:04.659Z,98404.34
2023-01-08T07:22:31.492Z,98405.25
2023-01-08T07:24:58.031Z,98401.72
2023-01-08T07:27:24.648Z,98410.72
2023-01-08T07:29:51.206Z,98414.19
2023-01-08T07:32:17.795Z,98423.19
2023-01-08T07:34:44.339Z,98409.22
2023-01-08T07:37:10.907Z,98412.25
2023-01-08T07:39:37.531Z,98424.44
2023-01-08T07:42:04.238Z,98420.47
2023-01-08T07:44:30.872Z,98411.09
2023-01-08T07:46:57.547Z,98408.69
2023-01-08T07:49:24.148Z,98397.75
2023-01-08T07:51:50.897Z,98387.56
2023-01-08T07:54:17.770Z,98394.19
2023-01-08T07:56:44.355Z,98390.22
2023-01-08T07:59:10.965Z,98393.81
2023-01-08T08:01:37.674Z,98382.84
2023-01-08T08:04:04.460Z,98391.75
2023-01-08T08:06:31.112Z,98396.03
2023-01-08T08:08:59.943Z,98400.00
2023-01-08T08:11:26.491Z,98393.22
2023-01-08T08:13:55.281Z,98393.22
2023-01-08T08:16:24.406Z,98385.59
2023-01-08T08:18:50.975Z,98395.75
2023-01-08T08:21:17.728Z,98384.38
2023-01-08T08:23:44.327Z,98375.78
2023-01-08T08:26:10.943Z,98378.00
2023-01-08T08:28:37.490Z,98384.81
2023-01-08T08:31:04.176Z,98387.19
2023-01-08T08:33:30.885Z,98386.56
2023-01-08T08:35:57.472Z,98375.41
2023-01-08T08:38:25.210Z,98369.09
2023-01-08T08:40:52.016Z,98365.75
2023-01-08T08:43:19.316Z,98364.03
2023-01-08T08:45:45.907Z,98351.38
2023-01-08T08:48:12.555Z,98366.09
2023-01-08T08:50:39.541Z,98364.88
2023-01-08T08:53:06.841Z,98374.56
2023-01-08T08:55:34.309Z,98357.75
2023-01-08T08:58:10.929Z,98369.66
2023-01-08T09:00:42.119Z,98355.22
2023-01-08T09:03:14.281Z,98355.22
2023-01-08T09:05:42.992Z,98359.19
2023-01-08T09:08:10.333Z,98365.41
2023-01-08T09:10:42.415Z,98356.19
2023-01-08T09:13:09.646Z,98360.16
2023-01-08T09:15:37.309Z,98345.91
2023-01-08T09:18:04.707Z,98352.06
2023-01-08T09:20:31.651Z,98357.94
2023-01-08T09:22:59.092Z,98356.53
2023-01-08T09:25:25.942Z,98354.31
2023-01-08T09:28:02.974Z,98354.03
2023-01-08T09:30:30.151Z,98354.50
2023-01-08T09:33:02.684Z,98354.50
2023-01-08T09:35:30.704Z,98362.09
2023-01-08T09:37:57.853Z,98358.44
2023-01-08T09:40:28.479Z,98361.13
2023-01-08T09:42:58.987Z,98360.16
2023-01-08T09:45:32.225Z,98360.16
2023-01-08T09:48:03.421Z,98362.38
2023-01-08T09:50:31.845Z,98359.81
2023-01-08T09:52:59.460Z,98348.09
2023-01-08T09:55:29.815Z,98356.47
2023-01-08T09:57:56.758Z,98348.72
2023-01-08T10:00:34.244Z,98354.09
2023-01-08T10:03:00.964Z,98357.28
2023-01-08T10:05:28.579Z,98352.84
2023-01-08T10:07:55.305Z,98360.59
2023-01-08T10:10:31.021Z,98361.41
2023-01-08T10:12:59.351Z,98348.41
2023-01-08T10:15:26.385Z,98351.41
2023-01-08T10:18:11.028Z,98357.91
2023-01-08T10:20:39.410Z,98340.47
2023-01-08T10:23:15.606Z,98334.28
2023-01-08T10:25:53.880Z,98338.88
2023-01-08T10:28:29.445Z,98329.22
2023-01-08T10:31:11.107Z,98336.66
2023-01-08T10:33:45.292Z,98330.16
2023-01-08T10:36:19.115Z,98327.00
2023-01-08T10:38:50.476Z,98313.03
2023-01-08T10:41:18.500Z,98317.13
2023-01-08T10:43:54.210Z,98316.38
2023-01-08T10:46:28.149Z,98307.94
2023-01-08T10:48:57.972Z,98296.53
2023-01-08T10:51:29.851Z,98293.53
2023-01-08T10:54:01.103Z,98296.22
2023-01-08T10:56:29.118Z,98289.09
2023-01-08T10:58:56.567Z,98287.34
2023-01-08T11:01:26.132Z,98286.25
2023-01-08T11:03:56.957Z,98287.84
2023-01-08T11:06:27.596Z,98286.25
2023-01-08T11:09:00.135Z,98276.56
2023-01-08T11:11:36.885Z,98265.16
2023-01-08T11:14:06.782Z,98274.56
2023-01-08T11:16:39.517Z,98259.31
2023-01-08T11:19:17.848Z,98258.53
2023-01-08T11:22:05.705Z,98253.28
2023-01-08T11:24:35.254Z,98248.22
2023-01-08T11:27:25.520Z,98253.75
2023-01-08T11:30:07.440Z,98249.47
2023-01-08T11:32:51.715Z,98247.13
2023-01-08T11:35:31.569Z,98245.38
2023-01-08T11:38:01.807Z,98238.53
2023-01-08T11:40:31.353Z,98247.44
2023-01-08T11:43:16.803Z,98233.78
2023-01-08T11:46:17.405Z,98239.47
2023-01-08T11:48:46.660Z,98233.31
2023-01-08T11:51:31.481Z,98228.88
2023-01-08T11:54:06.842Z,98224.75
2023-01-08T11:56:55.017Z,98224.75
2023-01-08T11:59:40.507Z,98211.25
2023-01-08T12:02:41.543Z,98214.72
2023-01-08T12:05:21.884Z,98208.97
2023-01-08T12:07:53.190Z,98195.47
2023-01-08T12:10:22.753Z,98191.69
2023-01-08T12:13:25.111Z,98190.25
2023-01-08T12:16:04.021Z,98185.00
2023-01-08T12:19:15.102Z,98185.47
2023-01-08T12:22:17.412Z,98186.41
2023-01-08T12:24:56.029Z,98179.72
2023-01-08T12:27:57.810Z,98174.84
2023-01-08T12:30:42.315Z,98169.09
2023-01-08T12:33:16.264Z,98180.81
2023-01-08T12:35:52.409Z,98175.91
2023-01-08T12:38:26.249Z,98170.97
2023-01-08T12:40:58.573Z,98174.78
2023-01-08T12:43:41.706Z,98164.63
2023-01-08T12:46:14.742Z,98170.22
2023-01-08T12:48:41.897Z,98167.03
2023-01-08T12:51:33.880Z,98165.75
2023-01-08T12:54:19.275Z,98145.28
2023-01-08T12:57:04.666Z,98142.75
2023-01-08T12:59:56.519Z,98138.16
2023-01-08T13:02:49.684Z,98147.50
2023-01-08T13:05:19.375Z,98145.25
2023-01-08T13:07:59.667Z,98132.88
2023-01-08T13:10:32.070Z,98134.47
2023-01-08T13:13:01.860Z,98127.63
2023-01-08T13:15:30.636Z,98125.06
2023-01-08T13:18:03.192Z,98120.78
2023-01-08T13:20:32.408Z,98117.59
2023-01-08T13:23:22.182Z,98114.44
2023-01-08T13:25:59.760Z,98110.63
2023-01-08T13:28:45.669Z,98112.84
2023-01-08T13:31:21.440Z,98112.09
2023-01-08T13:33:49.343Z,98113.19
2023-01-08T13:36:35.142Z,98099.69
2023-01-08T13:39:04.775Z,98087.44
2023-01-08T13:41:37.170Z,98072.34
2023-01-08T13:44:27.277Z,98079.22
2023-01-08T13:47:02.338Z,98074.13
2023-01-08T13:49:32.899Z,98065.72
2023-01-08T13:51:59.716Z,98070.59
2023-01-08T13:54:40.442Z,98064.06
2023-01-08T13:57:19.977Z,98060.75
2023-01-08T13:59:54.371Z,98058.50
2023-01-08T14:02:50.079Z,98048.47
2023-01-08T14:05:26.581Z,98047.03
2023-01-08T14:07:53.992Z,98044.00
2023-01-08T14:10:21.743Z,98039.41
2023-01-08T14:13:05.096Z,98042.41
2023-01-08T14:15:34.938Z,98053.22
2023-01-08T14:18:02.653Z,98043.88
2023-01-08T14:20:36.118Z,98030.84
2023-01-08T14:23:08.815Z,98030.38
2023-01-08T14:25:35.475Z,98026.88
2023-01-08T14:28:05.209Z,98026.09
2023-01-08T14:30:32.868Z,98016.88
2023-01-08T14:33:00.847Z,98025.16
2023-01-08T14:35:32.756Z,98016.13
2023-01-08T14:38:01.845Z,98018.81
2023-01-08T14:40:36.726Z,98013.41
2023-01-08T14:43:08.366Z,98014.22
2023-01-08T14:45:37.294Z,98014.22
2023-01-08T14:48:16.876Z,98004.19
2023-01-08T14:50:45.071Z,98006.25
2023-01-08T14:53:37.446Z,98006.25
2023-01-08T14:56:05.718Z,98002.63
2023-01-08T14:58:38.759Z,98004.19
2023-01-08T15:01:16.229Z,97998.69
2023-01-08T15:03:45.187Z,97996.94
2023-01-08T15:06:13.998Z,97994.44
2023-01-08T15:08:43.756Z,97989.03
2023-01-08T15:11:19.381Z,97998.13
2023-01-08T15:13:47.827Z,97991.13
2023-01-08T15:16:21.649Z,97984.00
2023-01-08T15:18:53.255Z,97981.50
2023-01-08T15:21:22.457Z,97988.66
2023-01-08T15:23:52.445Z,97980.28
2023-01-08T15:26:19.109Z,97986.50
2023-01-08T15:28:48.578Z,97973.50
2023-01-08T15:31:24.722Z,97981.66
2023-01-08T15:33:51.530Z,97968.31
2023-01-08T15:36:18.097Z,97966.63
2023-01-08T15:38:44.651Z,97964.22
2023-01-08T15:41:11.327Z,97968.22
2023-01-08T15:43:37.893Z,97973.81
2023-01-08T15:46:05.260Z,97975.22
2023-01-08T15:48:31.973Z,97985.84
2023-01-08T15:50:58.602Z,97983.03
2023-01-08T15:53:25.371Z,97974.13
2023-01-08T15:55:51.949Z,97979.22
2023-01-08T15:58:18.519Z,97968.91
2023-01-08T16:00:46.359Z,97958.56
2023-01-08T16:03:14.561Z,97943.81
2023-01-08T16:05:41.420Z,97944.94
2023-01-08T16:08:08.188Z,97927.84
2023-01-08T16:10:34.966Z,97920.38
2023-01-08T16:13:02.186Z,97930.72
2023-01-08T16:15:31.051Z,97916.75
2023-01-08T16:17:59.201Z,97919.75
2023-01-08T16:20:25.977Z,97918.03
2023-01-08T16:22:52.566Z,97927.22
2023-01-08T16:25:19.233Z,97926.28
2023-01-08T16:27:45.838Z,97925.81
2023-01-08T16:30:15.757Z,97927.59
2023-01-08T16:32:42.995Z,97931.38
2023-01-08T16:35:10.952Z,97919.97
2023-01-08T16:37:38.512Z,97925.72
2023-01-08T16:40:05.728Z,97921.72
2023-01-08T16:42:32.354Z,97917.75
2023-01-08T16:44:58.916Z,97907.59
2023-01-08T16:47:25.503Z,97916.81
2023-01-08T16:49:52.579Z,97894.78
2023-01-08T16:52:19.398Z,97898.91
2023-01-08T16:54:47.072Z,97899.69
2023-01-08T16:57:13.920Z,97890.03
2023-01-08T16:59:40.560Z,97895.41
2023-01-08T17:02:07.152Z,97878.16
2023-01-08T17:04:33.891Z,97874.81
2023-01-08T17:07:00.491Z,97877.97
2023-01-08T17:09:27.169Z,97876.84
2023-01-08T17:11:54.240Z,97874.63
2023-01-08T17:14:21.037Z,97856.88
2023-01-08T17:16:49.124Z,97862.28
2023-01-08T17:19:16.399Z,97850.56
2023-01-08T17:21:43.062Z,97850.41
2023-01-08T17:24:09.848Z,97853.44
2023-01-08T17:26:36.444Z,97846.78
2023-01-08T17:29:03.247Z,97852.50
2023-01-08T17:31:29.829Z,97853.28
2023-01-08T17:33:56.390Z,97850.13
2023-01-08T17:36:25.379Z,97852.03
2023-01-08T17:38:56.351Z,97846.47
2023-01-08T17:41:41.978Z,97842.97
2023-01-08T17:44:11.771Z,97846.31
2023-01-08T17:46:42.403Z,97841.59
2023-01-08T17:49:11.282Z,97831.16
2023-01-08T17:51:38.725Z,97827.19
2023-01-08T17:54:05.371Z,97814.34
2023-01-08T17:56:32.000Z,97812.44
2023-01-08T17:58:58.604Z,97809.91
2023-01-08T18:01:25.332Z,97814.19
2023-01-08T18:03:52.754Z,97792.97
2023-01-08T18:06:19.392Z,97807.84
2023-01-08T18:08:45.999Z,97801.66
2023-01-08T18:11:12.565Z,97790.91
2023-01-08T18:13:39.252Z,97801.84
2023-01-08T18:16:08.609Z,97793.78
2023-01-08T18:18:35.465Z,97782.88
2023-01-08T18:21:02.600Z,97789.34
2023-01-08T18:23:29.419Z,97776.53
2023-01-08T18:25:56.221Z,97777.16
2023-01-08T18:28:23.038Z,97769.44
2023-01-08T18:30:49.609Z,97770.06
2023-01-08T18:33:16.367Z,97758.50
2023-01-08T18:35:42.941Z,97769.25
2023-01-08T18:38:18.403Z,97758.66
2023-01-08T18:40:45.917Z,97764.03
2023-01-08T18:43:12.923Z,97763.25
2023-01-08T18:45:39.925Z,97757.84
2023-01-08T18:48:09.113Z,97752.47
2023-01-08T18:50:40.371Z,97770.84
2023-01-08T18:53:07.915Z,97754.69
2023-01-08T18:55:34.874Z,97750.25
2023-01-08T18:58:01.437Z,97753.41
2023-01-08T19:00:27.987Z,97746.59
2023-01-08T19:02:54.784Z,97739.78
2023-01-08T19:05:22.805Z,97732.66
2023-01-08T19:07:50.324Z,97734.34
2023-01-08T19:10:17.632Z,97728.19
2023-01-08T19:12:44.675Z,97728.66
2023-01-08T19:15:12.167Z,97733.09
2023-01-08T19:17:39.018Z,97724.47
2023-01-08T19:20:06.175Z,97719.09
2023-01-08T19:22:32.952Z,97719.09
2023-01-08T19:24:59.849Z,97707.22
2023-01-08T19:27:26.455Z,97704.53
2023-01-08T19:29:52.968Z,97702.31
2023-01-08T19:32:19.554Z,97699.63
2023-01-08T19:34:47.059Z,97701.50
2023-01-08T19:37:14.937Z,97696.94
2023-01-08T19:39:41.707Z,97695.47
2023-01-08T19:42:28.782Z,97695.63
2023-01-08T19:44:55.673Z,97684.84
2023-01-08T19:47:22.359Z,97688.66
2023-01-08T19:49:49.085Z,97684.50
2023-01-08T19:52:16.897Z,97674.22
2023-01-08T19:54:43.970Z,97669.59
2023-01-08T19:57:10.595Z,97671.84
2023-01-08T19:59:37.290Z,97662.50
2023-01-08T20:02:04.377Z,97652.06
2023-01-08T20:04:31.637Z,97649.38
2023-01-08T20:06:59.272Z,97650.47
2023-01-08T20:09:25.830Z,97635.56
2023-01-08T20:11:52.422Z,97632.84
2023-01-08T20:14:20.974Z,97634.13
2023-01-08T20:16:48.009Z,97619.53
2023-01-08T20:19:14.655Z,97626.03
2023-01-08T20:21:41.260Z,97624.94
2023-01-08T20:24:12.879Z,97622.22
2023-01-08T20:26:41.171Z,97616.38
2023-01-08T20:29:08.279Z,97610.84
2023-01-08T20:31:35.475Z,97608.50
2023-01-08T20:34:05.388Z,97602.31
2023-01-08T20:36:34.119Z,97595.34
2023-01-08T20:39:04.607Z,97603.13
2023-01-08T20:41:31.277Z,97592.34
2023-01-08T20:43:58.027Z,97581.56
2023-01-08T20:46:29.512Z,97588.84
2023-01-08T20:48:57.626Z,97587.63
2023-01-08T20:51:24.247Z,97569.59
2023-01-08T20:53:50.886Z,97565.50
2023-01-08T20:56:18.057Z,97556.97
2023-01-08T20:58:46.386Z,97555.25
2023-01-08T21:01:18.856Z,97552.91
2023-01-08T21:03:46.144Z,97547.53
2023-01-08T21:06:16.235Z,97543.72
2023-01-08T21:08:44.440Z,97538.31
2023-01-08T21:11:12.370Z,97529.13
2023-01-08T21:13:39.404Z,97522.94
2023-01-08T21:16:15.002Z,97523.09
2023-01-08T21:18:47.083Z,97531.94
2023-01-08T21:21:18.182Z,97543.56
2023-01-08T21:23:46.209Z,97540.56
2023-01-08T21:26:14.410Z,97530.41
2023-01-08T21:28:41.672Z,97543.88
2023-01-08T21:31:14.854Z,97544.34
2023-01-08T21:33:42.175Z,97547.19
2023-01-08T21:36:12.280Z,97546.88
2023-01-08T21:38:39.058Z,97546.66
2023-01-08T21:41:08.066Z,97549.81
2023-01-08T21:43:53.932Z,97552.50
2023-01-08T21:46:24.363Z,97551.09
2023-01-08T21:48:52.271Z,97558.81
2023-01-08T21:51:37.372Z,97548.84
2023-01-08T21:54:04.325Z,97559.47
2023-01-08T21:56:31.249Z,97549.56
2023-01-08T21:58:57.825Z,97558.91
2023-01-08T22:01:24.596Z,97544.72
2023-01-08T22:03:51.289Z,97537.50
2023-01-08T22:06:17.835Z,97531.81
2023-01-08T22:08:45.279Z,97532.47
2023-01-08T22:11:11.912Z,97524.59
2023-01-08T22:13:39.380Z,97514.81
2023-01-08T22:16:09.193Z,97524.97
2023-01-08T22:18:36.585Z,97515.00
2023-01-08T22:21:08.382Z,97506.63
2023-01-08T22:23:35.305Z,97501.03
2023-01-08T22:26:10.508Z,97506.41
2023-01-08T22:28:39.368Z,97508.75
2023-01-08T22:31:07.949Z,97506.88
2023-01-08T22:33:34.710Z,97510.34
2023-01-08T22:36:06.445Z,97499.25
2023-01-08T22:38:33.274Z,97512.88
2023-01-08T22:40:59.919Z,97501.91
2023-01-08T22:43:26.895Z,97514.41
2023-01-08T22:45:59.020Z,97507.44
2023-01-08T22:48:27.321Z,97499.03
2023-01-08T22:50:53.940Z,97514.06
2023-01-08T22:53:20.781Z,97518.66
2023-01-08T22:55:48.389Z,97514.06
2023-01-08T22:58:16.464Z,97518.84
2023-01-08T23:00:43.503Z,97513.44
2023-01-08T23:03:10.145Z,97515.81
2023-01-08T23:05:37.297Z,97521.06
2023-01-08T23:08:04.031Z,97515.56
2023-01-08T23:10:30.968Z,97520.13
2023-01-08T23:12:57.651Z,97532.47
2023-01-08T23:15:24.967Z,97529.47
2023-01-08T23:17:52.767Z,97523.94
2023-01-08T23:20:20.714Z,97520.13
2023-01-08T23:22:47.976Z,97527.09
2023-01-08T23:25:15.261Z,97520.94
2023-01-08T23:27:41.847Z,97528.88
2023-01-08T23:30:09.248Z,97523.78
2023-01-08T23:32:35.860Z,97528.41
2023-01-08T23:35:02.440Z,97535.81
2023-01-08T23:37:29.015Z,97522.38
2023-01-08T23:39:55.570Z,97537.84
2023-01-08T23:42:22.186Z,97524.09
2023-01-08T23:44:49.643Z,97534.97
2023-01-08T23:47:16.241Z,97540.84
2023-01-08T23:49:42.877Z,97535.94
2023-01-08T23:52:09.515Z,97544.13
2023-01-08T23:54:36.094Z,97535.75
2023-01-08T23:57:06.047Z,97541.72
2023-01-08T23:59:32.888Z,97543.16
